This is the latest recevied weather packets stored in our database for station/object DC4XK-10. If no packets are shown the sender has not sent any weather packets the latest 10 day(s).
| Time | Temp. | Humidity | Pressure | Rain* | Wind** | Luminosity | Snow |
|---|---|---|---|---|---|---|---|
| 1778169531 | 14.44° C | 46% | 1016 hPa | 0 mm | 0 m/s | - | - |
| 1778168933 | 14.44° C | 46% | 1015.9 hPa | 0 mm | 0 m/s | - | - |
| 1778168386 | 15° C | 43% | 1015.9 hPa | 0 mm | 0.45 m/s, 66° | - | - |
| 1778168331 | 15° C | 43% | 1015.9 hPa | 0 mm | 0.45 m/s, 66° | - | - |
| 1778167731 | 15° C | 43% | 1015.7 hPa | 0 mm | 0.45 m/s, 33° | - | - |
| 1778167133 | 14.44° C | 42% | 1015.7 hPa | 0 mm | 0 m/s | - | - |
| 1778166531 | 15° C | 41% | 1015.6 hPa | 0 mm | 0.45 m/s, 42° | - | - |
| 1778165931 | 14.44° C | 43% | 1015.6 hPa | 0 mm | 0 m/s | - | - |
| 1778165331 | 15° C | 43% | 1015.8 hPa | 0 mm | 0 m/s | - | - |
| 1778164731 | 15.56° C | 41% | 1015.6 hPa | 0 mm | 0.45 m/s, 67° | - | - |
| 1778164131 | 15.56° C | 41% | 1015.5 hPa | 0 mm | 0 m/s | - | - |
| 1778163531 | 15° C | 44% | 1015.6 hPa | 0 mm | 0 m/s | - | - |
| 1778162931 | 16.11° C | 42% | 1015.5 hPa | 0 mm | 0 m/s | - | - |
| 1778162331 | 15.56° C | 43% | 1015.8 hPa | 0 mm | 0 m/s | - | - |
| 1778161731 | 16.11° C | 42% | 1015.5 hPa | 0 mm | 0 m/s | - | - |
| 1778161131 | 15° C | 43% | 1015.5 hPa | 0 mm | 0 m/s | - | - |
| 1778160531 | 15.56° C | 44% | 1015.4 hPa | 0 mm | 0 m/s | - | - |
| 1778159931 | 15° C | 44% | 1015.4 hPa | 0 mm | 0 m/s | - | - |
| 1778159331 | 15.56° C | 43% | 1015.6 hPa | 0 mm | 0 m/s | - | - |
| 1778158732 | 15° C | 45% | 1015.3 hPa | 0 mm | 0 m/s | - | - |
| 1778158131 | 15.56° C | 45% | 1015.1 hPa | 0 mm | 0 m/s | - | - |
| 1778157531 | 15° C | 45% | 1015.2 hPa | 0 mm | 0 m/s | - | - |
| 1778156933 | 15° C | 45% | 1015.2 hPa | 0 mm | 0.45 m/s, 44° | - | - |
| 1778156331 | 16.11° C | 44% | 1015.1 hPa | 0 mm | 0 m/s | - | - |
| 1778155731 | 15.56° C | 46% | 1014.9 hPa | 0 mm | 0.45 m/s, 91° | - | - |
* Rain latest hour (hover to see other rain measurements)
** Current wind speed in m/s (hover to see current wind gust speed)